createdAt,value
2022-11-26T00:00:04.983Z,87.3
2022-11-26T00:01:22.087Z,87.1
2022-11-26T00:02:39.192Z,87.2
2022-11-26T00:03:56.297Z,87.4
2022-11-26T00:05:13.402Z,87.6
2022-11-26T00:06:30.507Z,87.3
2022-11-26T00:07:47.611Z,87.6
2022-11-26T00:09:04.716Z,87.7
2022-11-26T00:10:20.837Z,87.8
2022-11-26T00:11:37.942Z,87.8
2022-11-26T00:12:55.047Z,87.7
2022-11-26T00:14:12.151Z,87.8
2022-11-26T00:15:29.256Z,87.7
2022-11-26T00:16:46.361Z,87.8
2022-11-26T00:18:03.466Z,87.9
2022-11-26T00:19:19.592Z,88
2022-11-26T00:20:35.713Z,87.9
2022-11-26T00:21:51.839Z,88
2022-11-26T00:23:07.960Z,88
2022-11-26T00:24:24.086Z,87.8
2022-11-26T00:25:40.207Z,87.6
2022-11-26T00:26:57.312Z,87.7
2022-11-26T00:28:14.417Z,87.6
2022-11-26T00:29:31.522Z,87.6
2022-11-26T00:30:48.626Z,87.5
2022-11-26T00:32:05.731Z,87.4
2022-11-26T00:33:22.836Z,87.5
2022-11-26T00:34:39.941Z,88
2022-11-26T00:35:57.046Z,88
2022-11-26T00:37:14.151Z,87.8
2022-11-26T00:38:31.256Z,88.5
2022-11-26T00:39:48.360Z,88.5
2022-11-26T00:41:05.465Z,88.4
2022-11-26T00:42:21.586Z,88.6
2022-11-26T00:43:38.691Z,88.6
2022-11-26T00:44:55.796Z,88.8
2022-11-26T00:46:12.901Z,88.8
2022-11-26T00:47:30.006Z,88.8
2022-11-26T00:48:47.111Z,88.6
2022-11-26T00:50:04.215Z,88.5
2022-11-26T00:51:20.342Z,88.4
2022-11-26T00:52:36.463Z,88.5
2022-11-26T00:53:53.567Z,88.8
2022-11-26T00:55:10.672Z,88.7
2022-11-26T00:56:27.777Z,88.9
2022-11-26T00:59:01.987Z,88.8
2022-11-26T01:00:18.107Z,88.9
2022-11-26T01:01:35.212Z,88.7
2022-11-26T01:02:52.317Z,88.9
2022-11-26T01:04:09.422Z,89
2022-11-26T01:05:26.526Z,89.4
2022-11-26T01:06:43.631Z,89.4
2022-11-26T01:08:00.736Z,89.4
2022-11-26T01:09:17.841Z,89.4
2022-11-26T01:10:34.946Z,89.7
2022-11-26T01:11:52.050Z,89.5
2022-11-26T01:13:09.155Z,89.4
2022-11-26T01:14:26.260Z,89.6
2022-11-26T01:15:43.366Z,89.4
2022-11-26T01:16:59.486Z,89.3
2022-11-26T01:18:16.591Z,89.1
2022-11-26T01:19:32.717Z,88.7
2022-11-26T01:20:48.838Z,88.7
2022-11-26T01:22:04.964Z,88.6
2022-11-26T01:23:21.085Z,88.9
2022-11-26T01:24:38.190Z,89
2022-11-26T01:25:55.295Z,89.1
2022-11-26T01:27:12.400Z,89.4
2022-11-26T01:28:29.504Z,88.9
2022-11-26T01:29:46.609Z,88.9
2022-11-26T01:31:03.714Z,88.7
2022-11-26T01:32:20.818Z,89
2022-11-26T01:33:37.923Z,89
2022-11-26T01:34:55.028Z,89
2022-11-26T01:36:12.132Z,88.8
2022-11-26T01:37:29.238Z,88.9
2022-11-26T01:38:46.342Z,88.6
2022-11-26T01:40:02.463Z,88.6
2022-11-26T01:41:19.568Z,88.8
2022-11-26T01:42:36.672Z,88.7
2022-11-26T01:43:53.777Z,88.8
2022-11-26T01:45:10.882Z,89
2022-11-26T01:46:27.987Z,89
2022-11-26T01:47:45.091Z,89
2022-11-26T01:49:01.217Z,88.9
2022-11-26T01:50:17.338Z,89
2022-11-26T01:51:33.464Z,88.7
2022-11-26T01:52:49.585Z,88.9
2022-11-26T01:54:06.690Z,89.2
2022-11-26T01:55:23.796Z,89.5
2022-11-26T01:56:40.900Z,89.1
2022-11-26T01:57:58.005Z,89.1
2022-11-26T01:59:15.110Z,89
2022-11-26T02:00:32.214Z,89.1
2022-11-26T02:01:49.319Z,89.5
2022-11-26T02:03:06.424Z,89.8
2022-11-26T02:04:23.529Z,89.8
2022-11-26T02:05:40.633Z,90.1
2022-11-26T02:06:57.738Z,90.1
2022-11-26T02:09:31.948Z,89.9
2022-11-26T02:10:48.069Z,89.8
2022-11-26T02:12:05.174Z,89.8
2022-11-26T02:13:22.279Z,90
2022-11-26T02:14:39.383Z,89.9
2022-11-26T02:15:56.488Z,89.9
2022-11-26T02:17:13.593Z,89.6
2022-11-26T02:18:30.698Z,89.5
2022-11-26T02:19:46.824Z,89.6
2022-11-26T02:21:02.945Z,89.6
2022-11-26T02:22:20.049Z,89.6
2022-11-26T02:23:37.154Z,89.8
2022-11-26T02:24:54.259Z,89.9
2022-11-26T02:26:11.363Z,89.8
2022-11-26T02:27:28.468Z,89.9
2022-11-26T02:28:45.573Z,89.8
2022-11-26T02:30:02.678Z,89.8
2022-11-26T02:31:19.783Z,90.1
2022-11-26T02:32:36.887Z,90.1
2022-11-26T02:33:53.992Z,89.8
2022-11-26T02:35:11.097Z,89.5
2022-11-26T02:36:28.202Z,89.4
2022-11-26T02:37:44.323Z,89.4
2022-11-26T02:39:01.427Z,89.3
2022-11-26T02:40:18.533Z,89.3
2022-11-26T02:41:35.637Z,89.2
2022-11-26T02:42:52.742Z,89.1
2022-11-26T02:44:09.847Z,89
2022-11-26T02:45:26.952Z,88.5
2022-11-26T02:48:00.183Z,88.4
2022-11-26T02:49:16.309Z,88.3
2022-11-26T02:50:32.430Z,88.1
2022-11-26T02:51:48.556Z,88.3
2022-11-26T02:53:04.677Z,88.3
2022-11-26T02:54:20.803Z,88.4
2022-11-26T02:55:36.924Z,88.4
2022-11-26T02:56:54.028Z,88.6
2022-11-26T02:58:11.133Z,88.7
2022-11-26T02:59:28.238Z,88.9
2022-11-26T03:00:45.343Z,88.7
2022-11-26T03:02:02.448Z,88.6
2022-11-26T03:03:19.553Z,88.6
2022-11-26T03:04:36.657Z,88.7
2022-11-26T03:05:53.762Z,89
2022-11-26T03:07:10.867Z,89.3
2022-11-26T03:09:45.077Z,89.3
2022-11-26T03:11:02.182Z,89.4
2022-11-26T03:12:18.303Z,89.5
2022-11-26T03:13:35.407Z,89.5
2022-11-26T03:14:52.512Z,89.4
2022-11-26T03:16:09.617Z,89.3
2022-11-26T03:17:26.722Z,89.1
2022-11-26T03:18:43.826Z,89.1
2022-11-26T03:20:00.931Z,89.4
2022-11-26T03:21:18.036Z,89.7
2022-11-26T03:22:35.141Z,90
2022-11-26T03:23:52.246Z,90
2022-11-26T03:26:25.477Z,90.3
2022-11-26T03:27:41.603Z,90.4
2022-11-26T03:28:57.724Z,90.5
2022-11-26T03:30:13.850Z,90.6
2022-11-26T03:31:29.971Z,90.4
2022-11-26T03:32:47.076Z,90.3
2022-11-26T03:34:04.182Z,90.4
2022-11-26T03:35:21.286Z,90.7
2022-11-26T03:36:38.391Z,90.8
2022-11-26T03:39:12.601Z,90.8
2022-11-26T03:40:29.706Z,90.7
2022-11-26T03:41:46.811Z,90.6
2022-11-26T03:43:03.916Z,90.3
2022-11-26T03:44:21.020Z,90.1
2022-11-26T03:45:38.125Z,90
2022-11-26T03:46:55.230Z,90.1
2022-11-26T03:48:11.351Z,89.8
2022-11-26T03:49:28.456Z,89.8
2022-11-26T03:50:45.561Z,89.7
2022-11-26T03:52:02.666Z,89.5
2022-11-26T03:53:19.771Z,89.1
2022-11-26T03:54:36.875Z,88.9
2022-11-26T03:55:53.980Z,88.5
2022-11-26T03:57:11.085Z,88.5
2022-11-26T03:58:27.211Z,88.7
2022-11-26T03:59:43.332Z,88.9
2022-11-26T04:00:59.458Z,88.7
2022-11-26T04:02:15.579Z,88.8
2022-11-26T04:03:32.684Z,88.9
2022-11-26T04:04:49.789Z,89.1
2022-11-26T04:06:06.894Z,88.9
2022-11-26T04:07:23.999Z,88.9
2022-11-26T04:08:41.105Z,88.8
2022-11-26T04:09:58.210Z,88.9
2022-11-26T04:11:15.314Z,89
2022-11-26T04:12:32.419Z,89
2022-11-26T04:13:49.524Z,89
2022-11-26T04:15:06.629Z,88.9
2022-11-26T04:16:23.734Z,88.6
2022-11-26T04:17:40.839Z,88.3
2022-11-26T04:18:56.960Z,88.3
2022-11-26T04:20:14.065Z,88.7
2022-11-26T04:21:31.170Z,88.8
2022-11-26T04:22:48.274Z,88.7
2022-11-26T04:24:05.379Z,88.9
2022-11-26T04:25:22.484Z,89.1
2022-11-26T04:26:39.589Z,88.9
2022-11-26T04:27:55.715Z,88.7
2022-11-26T04:29:11.836Z,88.5
2022-11-26T04:30:28.941Z,88.5
2022-11-26T04:31:45.067Z,88.5
2022-11-26T04:33:01.188Z,88.5
2022-11-26T04:34:18.293Z,88.6
2022-11-26T04:35:35.398Z,88.5
2022-11-26T04:36:52.503Z,88.3
2022-11-26T04:38:09.608Z,88.3
2022-11-26T04:39:26.712Z,88.1
2022-11-26T04:40:43.817Z,88.1
2022-11-26T04:42:00.922Z,88.1
2022-11-26T04:43:18.027Z,88.1
2022-11-26T04:44:35.132Z,88.2
2022-11-26T04:45:52.237Z,88.2
2022-11-26T04:47:09.342Z,88.5
2022-11-26T04:48:26.447Z,88.5
2022-11-26T04:49:42.568Z,88.4
2022-11-26T04:50:59.672Z,88.3
2022-11-26T04:52:16.777Z,88.1
2022-11-26T04:53:33.882Z,88.1
2022-11-26T04:54:50.987Z,88.2
2022-11-26T04:56:08.092Z,88.6
2022-11-26T04:57:25.197Z,88.9
2022-11-26T04:58:41.323Z,89.1
2022-11-26T04:59:57.444Z,89.4
2022-11-26T05:01:13.570Z,89.5
2022-11-26T05:02:29.691Z,89.5
2022-11-26T05:03:46.795Z,89.7
2022-11-26T05:05:03.900Z,89.5
2022-11-26T05:06:21.005Z,89.4
2022-11-26T05:07:38.110Z,89.7
2022-11-26T05:08:55.215Z,89.7
2022-11-26T05:10:12.320Z,89.7
2022-11-26T05:11:29.425Z,89.8
2022-11-26T05:12:46.530Z,89.6
2022-11-26T05:14:03.634Z,89.1
2022-11-26T05:15:20.739Z,89
2022-11-26T05:16:37.844Z,88.4
2022-11-26T05:17:53.965Z,87.9
2022-11-26T05:19:11.070Z,87.9
2022-11-26T05:20:28.175Z,87.9
2022-11-26T05:21:45.280Z,87.5
2022-11-26T05:23:02.384Z,87.5
2022-11-26T05:24:19.489Z,87.3
2022-11-26T05:25:36.594Z,87.3
2022-11-26T05:26:53.699Z,87.5
2022-11-26T05:28:09.825Z,87.8
2022-11-26T05:29:25.946Z,87.3
2022-11-26T05:30:43.051Z,87.2
2022-11-26T05:31:59.177Z,87.3
2022-11-26T05:33:15.298Z,87.3
2022-11-26T05:34:32.402Z,87.7
2022-11-26T05:35:49.507Z,87.8
2022-11-26T05:37:06.612Z,87.4
2022-11-26T05:38:23.717Z,87.8
2022-11-26T05:39:40.822Z,88.1
2022-11-26T05:40:57.927Z,88.1
2022-11-26T05:42:15.031Z,88.1
2022-11-26T05:43:32.136Z,88
2022-11-26T05:44:49.241Z,87.8
2022-11-26T05:46:06.346Z,87.6
2022-11-26T05:47:23.451Z,87.5
2022-11-26T05:48:40.555Z,87.6
2022-11-26T05:49:56.676Z,87.4
2022-11-26T05:51:13.781Z,87.3
2022-11-26T05:52:30.886Z,87.2
2022-11-26T05:53:47.991Z,87
2022-11-26T05:55:05.096Z,87
2022-11-26T05:56:22.200Z,86.8
2022-11-26T05:57:39.305Z,86.6
2022-11-26T05:58:55.431Z,86.5
2022-11-26T06:00:11.552Z,86.4
2022-11-26T06:01:28.657Z,86.4
2022-11-26T06:02:44.783Z,86.5
2022-11-26T06:04:00.904Z,86.4
2022-11-26T06:05:18.009Z,86.3
2022-11-26T06:06:35.113Z,86.3
2022-11-26T06:07:52.218Z,86.1
2022-11-26T06:09:09.323Z,85.4
2022-11-26T06:10:26.428Z,85
2022-11-26T06:11:43.532Z,85.1
2022-11-26T06:13:00.637Z,84.7
2022-11-26T06:14:17.742Z,84.9
2022-11-26T06:15:34.847Z,84.8
2022-11-26T06:16:51.951Z,84.7
2022-11-26T06:18:09.056Z,84.5
2022-11-26T06:19:26.161Z,84.7
2022-11-26T06:20:42.282Z,84.7
2022-11-26T06:21:59.387Z,84.7
2022-11-26T06:23:16.491Z,84.5
2022-11-26T06:24:33.596Z,84.5
2022-11-26T06:27:07.806Z,84.8
2022-11-26T06:28:24.911Z,84.5
2022-11-26T06:29:42.015Z,84.2
2022-11-26T06:30:58.141Z,83.9
2022-11-26T06:32:14.262Z,84.2
2022-11-26T06:33:30.388Z,84.1
2022-11-26T06:34:46.509Z,84
2022-11-26T06:36:03.614Z,83.9
2022-11-26T06:37:20.718Z,83.9
2022-11-26T06:38:37.823Z,83.7
2022-11-26T06:39:54.928Z,83.7
2022-11-26T06:41:12.033Z,83.9
2022-11-26T06:42:29.138Z,83.8
2022-11-26T06:43:46.242Z,83.8
2022-11-26T06:45:03.347Z,83.8
2022-11-26T06:46:20.452Z,83.9
2022-11-26T06:47:37.556Z,84
2022-11-26T06:48:54.661Z,84.1
2022-11-26T06:50:11.766Z,84.1
2022-11-26T06:51:27.887Z,83.8
2022-11-26T06:52:44.992Z,83.8
2022-11-26T06:54:02.096Z,83.8
2022-11-26T06:55:19.201Z,83.6
2022-11-26T06:56:36.306Z,83.7
2022-11-26T06:57:53.411Z,84
2022-11-26T06:59:10.515Z,83.9
2022-11-26T07:00:26.641Z,84
2022-11-26T07:01:42.762Z,84
2022-11-26T07:02:59.867Z,84.1
2022-11-26T07:04:16.972Z,84.2
2022-11-26T07:05:33.098Z,84.2
2022-11-26T07:06:49.219Z,84.1
2022-11-26T07:08:06.323Z,84
2022-11-26T07:09:23.428Z,84.2
2022-11-26T07:10:40.533Z,84.1
2022-11-26T07:11:57.637Z,84.1
2022-11-26T07:13:14.742Z,84.1
2022-11-26T07:14:31.847Z,84
2022-11-26T07:15:48.951Z,83.7
2022-11-26T07:17:06.056Z,83.9
2022-11-26T07:18:23.161Z,83.9
2022-11-26T07:19:40.266Z,84
2022-11-26T07:20:57.370Z,83.9
2022-11-26T07:23:30.596Z,84.2
2022-11-26T07:24:47.701Z,84
2022-11-26T07:26:04.805Z,83.9
2022-11-26T07:27:21.910Z,83.7
2022-11-26T07:28:39.015Z,83.3
2022-11-26T07:29:56.120Z,83.4
2022-11-26T07:31:13.224Z,83.1
2022-11-26T07:32:29.351Z,83.2
2022-11-26T07:33:45.471Z,83
2022-11-26T07:35:01.597Z,83.1
2022-11-26T07:36:17.718Z,83.1
2022-11-26T07:37:34.823Z,83.1
2022-11-26T07:38:51.928Z,83.1
2022-11-26T07:40:09.032Z,82.8
2022-11-26T07:41:26.137Z,82.9
2022-11-26T07:42:43.242Z,82.5
2022-11-26T07:44:00.347Z,82.6
2022-11-26T07:45:17.451Z,82.7
2022-11-26T07:46:34.556Z,82.6
2022-11-26T07:47:51.661Z,82.2
2022-11-26T07:49:08.765Z,82.4
2022-11-26T07:50:25.870Z,82.3
2022-11-26T07:51:42.975Z,82.4
2022-11-26T07:52:59.096Z,82.2
2022-11-26T07:54:16.200Z,82.3
2022-11-26T07:55:33.306Z,82.4
2022-11-26T07:56:50.410Z,82.3
2022-11-26T07:58:07.515Z,82.2
2022-11-26T07:59:24.620Z,82.1
2022-11-26T08:00:41.724Z,82.1
2022-11-26T08:01:57.850Z,82.2
2022-11-26T08:03:13.971Z,82.1
2022-11-26T08:04:31.076Z,81.9
2022-11-26T08:05:47.202Z,81.8
2022-11-26T08:07:03.323Z,81.7
2022-11-26T08:08:20.427Z,81.8
2022-11-26T08:09:37.532Z,81.6
2022-11-26T08:10:54.637Z,81.9
2022-11-26T08:12:11.741Z,81.9
2022-11-26T08:13:28.846Z,82
2022-11-26T08:14:45.951Z,82.1
2022-11-26T08:16:03.055Z,82
2022-11-26T08:17:20.160Z,81.9
2022-11-26T08:18:37.265Z,82
2022-11-26T08:19:54.369Z,81.5
2022-11-26T08:21:11.474Z,81.3
2022-11-26T08:22:28.579Z,81.5
2022-11-26T08:23:44.700Z,81.3
2022-11-26T08:25:01.804Z,81.5
2022-11-26T08:26:18.909Z,81.5
2022-11-26T08:27:36.014Z,81.6
2022-11-26T08:28:53.118Z,81.3
2022-11-26T08:30:10.223Z,81.5
2022-11-26T08:31:27.328Z,81.5
2022-11-26T08:32:43.454Z,81.3
2022-11-26T08:33:59.574Z,81.3
2022-11-26T08:35:16.679Z,81.3
2022-11-26T08:36:32.805Z,81.5
2022-11-26T08:37:48.926Z,81.3
2022-11-26T08:39:06.031Z,81.6
2022-11-26T08:40:23.136Z,81.3
2022-11-26T08:41:40.240Z,81.5
2022-11-26T08:42:57.345Z,81.5
2022-11-26T08:44:14.449Z,81.5
2022-11-26T08:45:31.554Z,81.3
2022-11-26T08:46:48.659Z,81.5
2022-11-26T08:48:05.764Z,81.7
2022-11-26T08:49:22.868Z,81.7
2022-11-26T08:50:39.973Z,81.4
2022-11-26T08:51:57.075Z,81.1
2022-11-26T08:53:14.180Z,80.8
2022-11-26T08:54:30.301Z,80.2
2022-11-26T08:55:47.405Z,80.4
2022-11-26T08:57:04.510Z,80.2
2022-11-26T08:58:21.615Z,80.4
2022-11-26T08:59:38.720Z,80.5
2022-11-26T09:00:55.824Z,80.5
2022-11-26T09:02:12.929Z,80.3
2022-11-26T09:03:29.055Z,80
2022-11-26T09:04:45.176Z,80.3
2022-11-26T09:06:02.280Z,80.2
2022-11-26T09:07:19.385Z,80.2
2022-11-26T09:08:35.511Z,79.8
2022-11-26T09:09:51.632Z,80
2022-11-26T09:11:08.736Z,79.6
2022-11-26T09:12:25.841Z,79.8
2022-11-26T09:13:42.947Z,80
2022-11-26T09:15:00.051Z,80
2022-11-26T09:16:17.156Z,79.6
2022-11-26T09:17:34.261Z,79.4
2022-11-26T09:18:51.365Z,78.4
2022-11-26T09:20:08.470Z,78.4
2022-11-26T09:21:25.574Z,78.5
2022-11-26T09:22:42.679Z,78.9
2022-11-26T09:23:59.783Z,78.6
2022-11-26T09:25:16.888Z,78.7
2022-11-26T09:26:33.009Z,78.5
2022-11-26T09:27:50.114Z,78.1
2022-11-26T09:29:07.219Z,78.4
2022-11-26T09:30:24.324Z,78.5
2022-11-26T09:31:41.428Z,78.7
2022-11-26T09:32:58.533Z,78.2
2022-11-26T09:34:15.638Z,78.1
2022-11-26T09:35:31.774Z,78.8
2022-11-26T09:36:47.894Z,78.8
2022-11-26T09:38:04.999Z,79.1
2022-11-26T09:39:21.125Z,78.7
2022-11-26T09:40:37.246Z,79
2022-11-26T09:41:54.351Z,79.1
2022-11-26T09:43:11.455Z,78.1
2022-11-26T09:44:28.560Z,77.5
2022-11-26T09:45:45.665Z,77.4
2022-11-26T09:47:02.769Z,77
2022-11-26T09:48:19.874Z,76.5
2022-11-26T09:50:54.083Z,75.9
2022-11-26T09:52:11.188Z,76
2022-11-26T09:53:28.293Z,75.7
2022-11-26T09:54:45.398Z,75.4
2022-11-26T09:56:02.502Z,74.7
2022-11-26T09:57:18.623Z,74.5
2022-11-26T09:58:35.727Z,74.6
2022-11-26T09:59:52.832Z,74.9
2022-11-26T10:01:09.936Z,74.4
2022-11-26T10:02:27.040Z,74.2
2022-11-26T10:03:44.145Z,73.9
2022-11-26T10:05:01.250Z,73.8
2022-11-26T10:06:18.354Z,73.4
2022-11-26T10:07:34.480Z,74.3
2022-11-26T10:08:50.600Z,73.9
2022-11-26T10:10:06.726Z,73.5
2022-11-26T10:11:22.846Z,73.2
2022-11-26T10:12:39.951Z,73.2
2022-11-26T10:13:57.055Z,72.8
2022-11-26T10:15:14.159Z,72.9
2022-11-26T10:16:31.264Z,72.6
2022-11-26T10:17:48.368Z,72.6
2022-11-26T10:19:05.473Z,72.5
2022-11-26T10:20:22.577Z,72.7
2022-11-26T10:21:39.681Z,72.7
2022-11-26T10:22:56.786Z,72.8
2022-11-26T10:24:13.888Z,73
2022-11-26T10:25:30.992Z,73
2022-11-26T10:26:48.097Z,73.1
2022-11-26T10:28:04.217Z,72.8
2022-11-26T10:29:21.321Z,72.7
2022-11-26T10:30:38.426Z,72.9
2022-11-26T10:31:55.530Z,72.7
2022-11-26T10:33:12.635Z,72.6
2022-11-26T10:34:29.739Z,72.6
2022-11-26T10:35:46.843Z,72.6
2022-11-26T10:37:02.969Z,72.5
2022-11-26T10:38:19.090Z,72.4
2022-11-26T10:39:35.215Z,72.1
2022-11-26T10:40:51.336Z,72.1
2022-11-26T10:42:08.440Z,72.1
2022-11-26T10:43:25.544Z,72.3
2022-11-26T10:44:42.649Z,72.8
2022-11-26T10:45:59.753Z,72.8
2022-11-26T10:47:16.858Z,72.3
2022-11-26T10:48:33.962Z,72
2022-11-26T10:49:51.067Z,71.9
2022-11-26T10:51:08.171Z,71.8
2022-11-26T10:52:25.275Z,71.9
2022-11-26T10:53:42.379Z,71.7
2022-11-26T10:54:59.484Z,71.5
2022-11-26T10:56:16.588Z,72.4
2022-11-26T10:57:32.709Z,72.4
2022-11-26T10:58:49.813Z,72
2022-11-26T11:00:06.918Z,72.8
2022-11-26T11:01:24.022Z,72.4
2022-11-26T11:02:41.126Z,72.4
2022-11-26T11:03:58.231Z,71.8
2022-11-26T11:05:15.335Z,72.7
2022-11-26T11:06:31.461Z,72.8
2022-11-26T11:07:47.581Z,72.8
2022-11-26T11:09:04.686Z,72.3
2022-11-26T11:10:20.811Z,72
2022-11-26T11:11:36.932Z,71.5
2022-11-26T11:12:54.037Z,71.5
2022-11-26T11:14:11.141Z,71.3
2022-11-26T11:15:28.245Z,71.6
2022-11-26T11:16:45.350Z,71.5
2022-11-26T11:18:02.454Z,71.4
2022-11-26T11:19:19.558Z,71.4
2022-11-26T11:20:36.663Z,71.7
2022-11-26T11:21:53.767Z,71.2
2022-11-26T11:23:10.872Z,71.2
2022-11-26T11:24:27.976Z,71.2
2022-11-26T11:25:45.080Z,71.7
2022-11-26T11:27:02.185Z,72
2022-11-26T11:28:18.305Z,72
2022-11-26T11:29:35.410Z,71.7
2022-11-26T11:30:52.514Z,72
2022-11-26T11:32:09.618Z,72
2022-11-26T11:33:26.723Z,71.7
2022-11-26T11:34:43.828Z,71.5
2022-11-26T11:36:00.932Z,71.9
2022-11-26T11:37:18.036Z,71.6
2022-11-26T11:38:34.162Z,72.3
2022-11-26T11:39:50.283Z,72.1
2022-11-26T11:41:06.409Z,72.1
2022-11-26T11:42:22.529Z,71.9
2022-11-26T11:43:39.633Z,71.9
2022-11-26T11:44:56.738Z,72.3
2022-11-26T11:46:13.842Z,72.3
2022-11-26T11:47:30.946Z,71.9
2022-11-26T11:48:48.051Z,71.6
2022-11-26T11:50:05.156Z,71.9
2022-11-26T11:51:22.260Z,72.1
2022-11-26T11:52:39.364Z,72.4
2022-11-26T11:53:56.469Z,72.6
2022-11-26T11:55:13.573Z,71.7
2022-11-26T11:56:30.677Z,71.6
2022-11-26T11:57:47.782Z,72
2022-11-26T11:59:04.886Z,71.8
2022-11-26T12:00:21.007Z,71
2022-11-26T12:01:38.111Z,71.5
2022-11-26T12:02:55.216Z,71.3
2022-11-26T12:04:12.320Z,71.1
2022-11-26T12:05:29.424Z,71.3
2022-11-26T12:06:46.529Z,70.3
2022-11-26T12:08:02.654Z,70.5
2022-11-26T12:09:18.775Z,70.8
2022-11-26T12:10:34.901Z,70.4
2022-11-26T12:11:51.021Z,70.7
2022-11-26T12:13:08.125Z,70.3
2022-11-26T12:14:25.230Z,70.2
2022-11-26T12:15:42.334Z,70.4
2022-11-26T12:16:59.439Z,70.3
2022-11-26T12:18:16.543Z,70.5
2022-11-26T12:19:33.647Z,70.4
2022-11-26T12:20:50.752Z,70.3
2022-11-26T12:22:07.856Z,70.4
2022-11-26T12:23:24.960Z,70.6
2022-11-26T12:24:42.065Z,70.4
2022-11-26T12:25:59.169Z,70.3
2022-11-26T12:27:16.274Z,70.5
2022-11-26T12:28:32.394Z,70.6
2022-11-26T12:29:49.498Z,70.7
2022-11-26T12:31:06.603Z,70.4
2022-11-26T12:32:23.707Z,70.8
2022-11-26T12:33:40.812Z,70.9
2022-11-26T12:34:57.916Z,71.4
2022-11-26T12:36:15.020Z,71.5
2022-11-26T12:37:32.125Z,71.7
2022-11-26T12:38:48.251Z,72.2
2022-11-26T12:40:04.371Z,72.5
2022-11-26T12:41:21.476Z,72.9
2022-11-26T12:42:37.602Z,73
2022-11-26T12:43:53.723Z,73.1
2022-11-26T12:45:10.827Z,73
2022-11-26T12:46:27.932Z,72.9
2022-11-26T12:47:45.036Z,72.9
2022-11-26T12:49:02.140Z,73.4
2022-11-26T12:50:19.245Z,73.3
2022-11-26T12:51:36.349Z,73.5
2022-11-26T12:52:53.454Z,73.3
2022-11-26T12:54:10.559Z,73.6
2022-11-26T12:55:27.663Z,73.8
2022-11-26T12:56:44.768Z,73.6
2022-11-26T12:58:01.873Z,73.5
2022-11-26T12:59:18.977Z,73.5
2022-11-26T13:00:35.098Z,73.3
2022-11-26T13:03:09.307Z,73.3
2022-11-26T13:04:26.412Z,73.9
2022-11-26T13:05:43.517Z,74.2
2022-11-26T13:07:00.621Z,74
2022-11-26T13:08:17.726Z,73.8
2022-11-26T13:09:34.831Z,73.4
2022-11-26T13:10:50.957Z,73.5
2022-11-26T13:12:07.078Z,73.7
2022-11-26T13:13:23.204Z,74
2022-11-26T13:14:39.325Z,74
2022-11-26T13:15:56.429Z,74.2
2022-11-26T13:17:13.534Z,74.3
2022-11-26T13:18:30.639Z,74.5
2022-11-26T13:19:47.743Z,74.4
2022-11-26T13:21:04.848Z,74.7
2022-11-26T13:22:21.953Z,74.7
2022-11-26T13:23:39.058Z,74.8
2022-11-26T13:24:56.162Z,75
2022-11-26T13:26:13.267Z,75.2
2022-11-26T13:27:30.372Z,75.4
2022-11-26T13:28:47.477Z,75.5
2022-11-26T13:30:04.581Z,75.1
2022-11-26T13:31:20.702Z,74.8
2022-11-26T13:32:37.807Z,74.7
2022-11-26T13:33:54.912Z,75.2
2022-11-26T13:35:12.016Z,74.8
2022-11-26T13:36:29.121Z,75
2022-11-26T13:37:46.226Z,75.3
2022-11-26T13:39:03.330Z,75.2
2022-11-26T13:40:19.456Z,75.2
2022-11-26T13:41:35.577Z,75.4
2022-11-26T13:42:52.682Z,75.2
2022-11-26T13:44:09.787Z,75.5
2022-11-26T13:45:25.913Z,75.5
2022-11-26T13:46:42.033Z,75.9
2022-11-26T13:47:59.138Z,76.1
2022-11-26T13:49:16.243Z,76.2
2022-11-26T13:50:33.348Z,76.2
2022-11-26T13:51:50.452Z,76.1
2022-11-26T13:53:06.573Z,76.1
2022-11-26T13:54:23.678Z,76.5
2022-11-26T13:55:40.783Z,76.3
2022-11-26T13:56:57.887Z,76.3
2022-11-26T13:58:14.992Z,76.4
2022-11-26T13:59:32.097Z,76.7
2022-11-26T14:00:49.201Z,77
2022-11-26T14:02:06.306Z,76.9
2022-11-26T14:03:23.410Z,76.8
2022-11-26T14:04:40.515Z,76.9
2022-11-26T14:05:57.619Z,76.5
2022-11-26T14:07:14.724Z,76.5
2022-11-26T14:08:31.828Z,76.5
2022-11-26T14:09:47.949Z,76.8
2022-11-26T14:11:05.054Z,76.8
2022-11-26T14:12:21.180Z,77.3
2022-11-26T14:13:37.301Z,77.5
2022-11-26T14:14:53.426Z,77.8
2022-11-26T14:16:09.547Z,77.9
2022-11-26T14:17:26.652Z,77.7
2022-11-26T14:18:43.756Z,77.8
2022-11-26T14:20:00.861Z,77.8
2022-11-26T14:21:17.966Z,77.6
2022-11-26T14:22:35.070Z,77.2
2022-11-26T14:23:52.175Z,77.8
2022-11-26T14:25:09.280Z,78.3
2022-11-26T14:26:26.385Z,78.5
2022-11-26T14:27:43.489Z,78.6
2022-11-26T14:29:00.594Z,78.7
2022-11-26T14:30:17.698Z,78.7
2022-11-26T14:31:34.803Z,79
2022-11-26T14:32:50.924Z,79
2022-11-26T14:34:08.028Z,78.5
2022-11-26T14:35:25.133Z,78.3
2022-11-26T14:36:42.238Z,78.2
2022-11-26T14:37:59.343Z,78.3
2022-11-26T14:39:16.447Z,78.2
2022-11-26T14:41:50.656Z,78.5
2022-11-26T14:43:06.782Z,78.5
2022-11-26T14:44:22.903Z,78.2
2022-11-26T14:45:40.007Z,78
2022-11-26T14:46:57.112Z,78.2
2022-11-26T14:48:13.238Z,78.3
2022-11-26T14:49:29.359Z,78.3
2022-11-26T14:50:46.463Z,78.3
2022-11-26T14:52:03.568Z,78
2022-11-26T14:53:20.673Z,78.2
2022-11-26T14:54:37.778Z,78.5
2022-11-26T14:55:54.882Z,78.5
2022-11-26T14:57:11.987Z,78.6
2022-11-26T14:58:29.091Z,78.5
2022-11-26T14:59:46.196Z,78.8
2022-11-26T15:01:03.301Z,78.9
2022-11-26T15:02:20.405Z,78.7
2022-11-26T15:04:54.615Z,78.1
2022-11-26T15:06:10.735Z,77.9
2022-11-26T15:07:27.840Z,77.4
2022-11-26T15:08:44.945Z,77.6
2022-11-26T15:10:02.049Z,77.7
2022-11-26T15:11:19.154Z,77.9
2022-11-26T15:12:36.258Z,77.7
2022-11-26T15:13:53.363Z,77.8
2022-11-26T15:15:10.468Z,78.3
2022-11-26T15:16:26.594Z,78
2022-11-26T15:17:42.715Z,77.9
2022-11-26T15:18:58.840Z,78
2022-11-26T15:20:14.961Z,78.3
2022-11-26T15:21:32.066Z,78.2
2022-11-26T15:22:49.171Z,78
2022-11-26T15:24:06.275Z,78.2
2022-11-26T15:25:23.380Z,77.9
2022-11-26T15:26:40.484Z,78.3
2022-11-26T15:27:57.589Z,78.6
2022-11-26T15:29:14.693Z,78.3
2022-11-26T15:30:31.798Z,78.5
2022-11-26T15:31:48.903Z,78
2022-11-26T15:33:06.008Z,78.4
2022-11-26T15:34:23.112Z,78.7
2022-11-26T15:35:40.217Z,79.2
2022-11-26T15:36:56.338Z,79.3
2022-11-26T15:38:13.442Z,79.5
2022-11-26T15:39:30.547Z,79.7
2022-11-26T15:40:47.652Z,80
2022-11-26T15:42:04.757Z,80.2
2022-11-26T15:43:21.861Z,80.3
2022-11-26T15:44:38.966Z,80.1
2022-11-26T15:45:55.092Z,79.9
2022-11-26T15:47:11.213Z,79.7
2022-11-26T15:48:28.318Z,79.5
2022-11-26T15:49:45.420Z,79.5
2022-11-26T15:51:01.546Z,79.6
2022-11-26T15:52:17.667Z,79.6
2022-11-26T15:53:34.772Z,79.5
2022-11-26T15:54:51.877Z,79.5
2022-11-26T15:56:08.981Z,79.6
2022-11-26T15:57:26.088Z,79.3
2022-11-26T15:58:43.192Z,79.3
2022-11-26T16:00:00.297Z,79.2
2022-11-26T16:01:17.402Z,79.6
2022-11-26T16:02:34.506Z,79.7
2022-11-26T16:03:51.611Z,79.5
2022-11-26T16:05:08.716Z,79.5
2022-11-26T16:06:25.821Z,79.7
2022-11-26T16:07:42.926Z,79.6
2022-11-26T16:08:59.047Z,79.6
2022-11-26T16:10:16.151Z,79.3
2022-11-26T16:11:33.256Z,79.3
2022-11-26T16:12:50.362Z,79.5
2022-11-26T16:14:07.467Z,79.7
2022-11-26T16:15:24.571Z,79.5
2022-11-26T16:16:41.676Z,79.5
2022-11-26T16:17:57.802Z,79.2
2022-11-26T16:19:13.923Z,79.2
2022-11-26T16:20:30.049Z,79.3
2022-11-26T16:21:46.170Z,79.5
2022-11-26T16:23:03.275Z,79.7
2022-11-26T16:24:20.380Z,79.8
2022-11-26T16:25:37.484Z,79.9
2022-11-26T16:26:54.589Z,79.5
2022-11-26T16:28:11.694Z,79.5
2022-11-26T16:29:28.799Z,79.6
2022-11-26T16:30:45.903Z,79.8
2022-11-26T16:32:03.008Z,79.9
2022-11-26T16:33:20.113Z,79.4
2022-11-26T16:34:37.218Z,79.8
2022-11-26T16:35:54.323Z,79.8
2022-11-26T16:37:11.428Z,79.7
2022-11-26T16:38:27.548Z,79.7
2022-11-26T16:39:44.653Z,79.7
2022-11-26T16:41:01.758Z,79.4
2022-11-26T16:42:18.863Z,79.5
2022-11-26T16:43:35.967Z,79
2022-11-26T16:44:53.072Z,79.1
2022-11-26T16:46:10.177Z,79.2
2022-11-26T16:47:26.304Z,79.4
2022-11-26T16:48:42.424Z,79.6
2022-11-26T16:49:59.529Z,79.7
2022-11-26T16:51:16.634Z,79.7
2022-11-26T16:52:33.739Z,79.8
2022-11-26T16:53:50.844Z,79.8
2022-11-26T16:55:07.948Z,79.9
2022-11-26T16:56:25.053Z,79.7
2022-11-26T16:57:42.158Z,79.8
2022-11-26T16:58:59.263Z,79.6
2022-11-26T17:00:16.368Z,79.7
2022-11-26T17:01:33.473Z,79.6
2022-11-26T17:02:50.577Z,79.5
2022-11-26T17:04:07.682Z,79.9
2022-11-26T17:05:23.803Z,79.9
2022-11-26T17:06:40.908Z,80.1
2022-11-26T17:07:58.013Z,80.2
2022-11-26T17:09:15.118Z,80.2
2022-11-26T17:10:32.223Z,80.2
2022-11-26T17:11:49.328Z,80.2
2022-11-26T17:13:06.433Z,80.2
2022-11-26T17:14:22.559Z,80.3
2022-11-26T17:15:38.680Z,80.3
2022-11-26T17:16:54.806Z,80.5
2022-11-26T17:18:10.927Z,80.7
2022-11-26T17:19:28.032Z,80.7
2022-11-26T17:20:45.136Z,80.7
2022-11-26T17:22:01.263Z,81
2022-11-26T17:23:17.383Z,81
2022-11-26T17:24:34.488Z,81.1